الصفحة الرئيسية
METAR-TAF:

METAR-TAF

مطار :

مابوتو, موزمبيق

دائرة عرض: 25-55S, خط طول: 032-34E, ارتفاع: 39 متر

مراقبة الطقس الحالي

تاريخ ووقت الإصدار 1ساعة و 0 دقيقة قبل الساعة 09:00UTC
ريح 8 عقدة من الجنوب/الجنوب الشرقي
درجة الحرارة 32°درجة مئوية
الرطوبة 46%
ضغط 1021 hPa
الرؤية 10 كم أو أكثر
غيوم متفرقة على ارتفاع 2000 قدم

METAR: FQMA 140900Z 16008KT 9999 SCT020 32/19 Q1021 NOSIG

زمن: 12:00 (10:00 UTC)

توقعات

تاريخ ووقت الإصدار 6ساعات و 0 دقيقة قبل الساعة 04:00UTC
التوقعات صالحة من14 الساعة 06 UTC إلى 15 الساعة 12 UTC
ريح 10 عقدة من الجنوب/الجنوب الشرقي
الرؤية 10 كم أو أكثر
غيوم قليلة على ارتفاع 2000 قدم
أصبح
من 14 الساعة 18 UTC إلى 14 الساعة 20 UTC
ريح 12 عقدة من الشرق
أصبح
من 15 الساعة 00 UTC إلى 15 الساعة 02 UTC
ريح 10 عقدة من الغرب/الشمال الغربي
أصبح
من 15 الساعة 06 UTC إلى 15 الساعة 08 UTC
ريح 10 عقدة من الشمال/الشمال الشرقي

TAF: FQMA 140400Z 1406/1512 15010KT 9999 FEW020 BECMG 1418/1420 09012KT BECMG 1500/1502 30010KT BECMG 1506/1508 02010KT TX30/1413Z TN21/1503Z

أرصاد الطقس والتوقعات من أكثر من 4000 مطار (تقارير الطقس للمطار METAR والتنبؤ بالطقس بالمطارTAF).

المحطات المتاحة هي النقط الصفراء والحمراء على الخريطة.

حرك المؤشر فوق النقطة لمعرفة اسم المحطة.

ثم انقر لمعرفة أرصاد وتوقعات الطقس.

لتغيير الخارطة: اضغط على الأزرار الخضراء مع رمز الصليب الأسود للتكبير. على الزر الأخضر مع شرطة للتصغير، أو على الأسهم الخضراء للخرائط المجاورة.


METAR-TAF: